sensor_id;sensor_type;location;lat;lon;timestamp;P1;durP1;ratioP1;P2;durP2;ratioP2
24090;SDS011;12272;52.426;17.100;2023-08-08T00:04:21;7.53;;;4.57;;
24090;SDS011;12272;52.426;17.100;2023-08-08T00:09:23;9.75;;;3.40;;
24090;SDS011;12272;52.426;17.100;2023-08-08T00:14:26;7.53;;;5.22;;
24090;SDS011;12272;52.426;17.100;2023-08-08T00:19:28;6.53;;;4.07;;
24090;SDS011;12272;52.426;17.100;2023-08-08T00:24:31;9.18;;;3.72;;
24090;SDS011;12272;52.426;17.100;2023-08-08T00:29:34;5.95;;;3.55;;
24090;SDS011;12272;52.426;17.100;2023-08-08T00:34:37;4.13;;;3.40;;
24090;SDS011;12272;52.426;17.100;2023-08-08T00:39:40;7.53;;;3.58;;
24090;SDS011;12272;52.426;17.100;2023-08-08T00:44:48;7.25;;;4.60;;
24090;SDS011;12272;52.426;17.100;2023-08-08T00:49:50;6.07;;;3.67;;
24090;SDS011;12272;52.426;17.100;2023-08-08T00:54:53;8.00;;;3.40;;
24090;SDS011;12272;52.426;17.100;2023-08-08T00:59:56;8.90;;;3.97;;
24090;SDS011;12272;52.426;17.100;2023-08-08T01:05:00;9.05;;;3.78;;
24090;SDS011;12272;52.426;17.100;2023-08-08T01:10:08;4.82;;;3.45;;
24090;SDS011;12272;52.426;17.100;2023-08-08T01:15:16;7.47;;;4.05;;
24090;SDS011;12272;52.426;17.100;2023-08-08T01:20:20;4.60;;;3.75;;
24090;SDS011;12272;52.426;17.100;2023-08-08T01:25:27;5.57;;;3.25;;
24090;SDS011;12272;52.426;17.100;2023-08-08T01:30:30;7.22;;;1.98;;
24090;SDS011;12272;52.426;17.100;2023-08-08T01:35:37;5.00;;;3.28;;
24090;SDS011;12272;52.426;17.100;2023-08-08T01:40:44;3.80;;;2.53;;
24090;SDS011;12272;52.426;17.100;2023-08-08T01:45:47;6.55;;;3.30;;
24090;SDS011;12272;52.426;17.100;2023-08-08T01:50:50;4.97;;;3.92;;
24090;SDS011;12272;52.426;17.100;2023-08-08T01:55:53;3.10;;;1.77;;
24090;SDS011;12272;52.426;17.100;2023-08-08T02:00:55;4.35;;;3.55;;
24090;SDS011;12272;52.426;17.100;2023-08-08T02:05:58;7.03;;;3.67;;
24090;SDS011;12272;52.426;17.100;2023-08-08T02:11:00;6.32;;;3.47;;
24090;SDS011;12272;52.426;17.100;2023-08-08T02:16:03;5.55;;;3.28;;
24090;SDS011;12272;52.426;17.100;2023-08-08T02:21:06;4.60;;;2.60;;
24090;SDS011;12272;52.426;17.100;2023-08-08T02:26:09;4.53;;;2.72;;
24090;SDS011;12272;52.426;17.100;2023-08-08T02:31:12;4.15;;;2.85;;
24090;SDS011;12272;52.426;17.100;2023-08-08T02:36:17;2.88;;;2.53;;
24090;SDS011;12272;52.426;17.100;2023-08-08T02:41:20;4.07;;;2.83;;
24090;SDS011;12272;52.426;17.100;2023-08-08T02:46:24;2.97;;;2.55;;
24090;SDS011;12272;52.426;17.100;2023-08-08T02:51:28;5.40;;;2.50;;
24090;SDS011;12272;52.426;17.100;2023-08-08T02:56:30;3.30;;;2.67;;
24090;SDS011;12272;52.426;17.100;2023-08-08T03:01:33;3.28;;;2.00;;
24090;SDS011;12272;52.426;17.100;2023-08-08T03:06:41;3.70;;;3.17;;
24090;SDS011;12272;52.426;17.100;2023-08-08T03:11:44;4.25;;;3.15;;
24090;SDS011;12272;52.426;17.100;2023-08-08T03:16:49;4.80;;;2.55;;
24090;SDS011;12272;52.426;17.100;2023-08-08T03:21:52;4.85;;;2.63;;
24090;SDS011;12272;52.426;17.100;2023-08-08T03:26:55;6.45;;;2.85;;
24090;SDS011;12272;52.426;17.100;2023-08-08T03:31:58;4.70;;;2.83;;
24090;SDS011;12272;52.426;17.100;2023-08-08T03:37:04;1.90;;;1.67;;
24090;SDS011;12272;52.426;17.100;2023-08-08T03:42:07;2.60;;;1.77;;
24090;SDS011;12272;52.426;17.100;2023-08-08T03:47:10;3.85;;;2.38;;
24090;SDS011;12272;52.426;17.100;2023-08-08T03:52:21;3.67;;;2.50;;
24090;SDS011;12272;52.426;17.100;2023-08-08T03:57:25;3.63;;;1.92;;
24090;SDS011;12272;52.426;17.100;2023-08-08T04:02:27;3.60;;;2.70;;
24090;SDS011;12272;52.426;17.100;2023-08-08T04:07:30;5.65;;;1.90;;
24090;SDS011;12272;52.426;17.100;2023-08-08T04:12:33;6.70;;;2.78;;
24090;SDS011;12272;52.426;17.100;2023-08-08T04:17:36;4.43;;;2.17;;
24090;SDS011;12272;52.426;17.100;2023-08-08T04:22:38;3.60;;;2.50;;
24090;SDS011;12272;52.426;17.100;2023-08-08T04:27:41;3.28;;;2.42;;
24090;SDS011;12272;52.426;17.100;2023-08-08T04:32:44;5.00;;;1.73;;
24090;SDS011;12272;52.426;17.100;2023-08-08T04:37:47;3.33;;;2.08;;
24090;SDS011;12272;52.426;17.100;2023-08-08T04:42:51;4.00;;;2.78;;
24090;SDS011;12272;52.426;17.100;2023-08-08T04:47:53;6.68;;;2.30;;
24090;SDS011;12272;52.426;17.100;2023-08-08T04:52:56;3.83;;;2.28;;
24090;SDS011;12272;52.426;17.100;2023-08-08T04:57:58;2.25;;;1.85;;
24090;SDS011;12272;52.426;17.100;2023-08-08T05:03:01;3.63;;;1.90;;
24090;SDS011;12272;52.426;17.100;2023-08-08T05:08:04;2.90;;;1.88;;
24090;SDS011;12272;52.426;17.100;2023-08-08T05:13:08;2.63;;;1.55;;
24090;SDS011;12272;52.426;17.100;2023-08-08T05:18:11;3.28;;;1.90;;
24090;SDS011;12272;52.426;17.100;2023-08-08T05:23:14;3.70;;;1.85;;
24090;SDS011;12272;52.426;17.100;2023-08-08T05:28:16;2.63;;;1.73;;
24090;SDS011;12272;52.426;17.100;2023-08-08T05:33:19;2.25;;;1.67;;
24090;SDS011;12272;52.426;17.100;2023-08-08T05:38:22;3.05;;;1.70;;
24090;SDS011;12272;52.426;17.100;2023-08-08T05:43:24;2.72;;;2.00;;
24090;SDS011;12272;52.426;17.100;2023-08-08T05:48:29;2.30;;;1.63;;
24090;SDS011;12272;52.426;17.100;2023-08-08T05:53:31;3.28;;;1.73;;
24090;SDS011;12272;52.426;17.100;2023-08-08T05:58:34;1.60;;;0.98;;
24090;SDS011;12272;52.426;17.100;2023-08-08T06:03:39;4.50;;;1.42;;
24090;SDS011;12272;52.426;17.100;2023-08-08T06:08:41;1.73;;;1.63;;
24090;SDS011;12272;52.426;17.100;2023-08-08T06:13:44;2.85;;;1.40;;
24090;SDS011;12272;52.426;17.100;2023-08-08T06:18:46;1.73;;;1.63;;
24090;SDS011;12272;52.426;17.100;2023-08-08T06:23:58;2.88;;;1.27;;
24090;SDS011;12272;52.426;17.100;2023-08-08T06:29:00;2.58;;;1.35;;
24090;SDS011;12272;52.426;17.100;2023-08-08T06:34:04;1.42;;;1.00;;
24090;SDS011;12272;52.426;17.100;2023-08-08T06:39:10;2.47;;;1.45;;
24090;SDS011;12272;52.426;17.100;2023-08-08T06:44:13;1.85;;;1.30;;
24090;SDS011;12272;52.426;17.100;2023-08-08T06:49:15;3.08;;;1.45;;
24090;SDS011;12272;52.426;17.100;2023-08-08T06:54:18;2.38;;;1.20;;
24090;SDS011;12272;52.426;17.100;2023-08-08T06:59:20;2.55;;;1.45;;
24090;SDS011;12272;52.426;17.100;2023-08-08T07:04:24;2.40;;;1.30;;
24090;SDS011;12272;52.426;17.100;2023-08-08T07:09:27;0.60;;;0.50;;
24090;SDS011;12272;52.426;17.100;2023-08-08T07:14:29;2.90;;;1.75;;
24090;SDS011;12272;52.426;17.100;2023-08-08T07:19:32;1.33;;;0.90;;
24090;SDS011;12272;52.426;17.100;2023-08-08T07:24:35;1.33;;;0.82;;
24090;SDS011;12272;52.426;17.100;2023-08-08T07:29:37;1.27;;;0.88;;
24090;SDS011;12272;52.426;17.100;2023-08-08T07:34:40;5.57;;;1.33;;
24090;SDS011;12272;52.426;17.100;2023-08-08T07:39:43;1.88;;;1.30;;
24090;SDS011;12272;52.426;17.100;2023-08-08T07:44:45;2.30;;;1.48;;
24090;SDS011;12272;52.426;17.100;2023-08-08T07:49:48;3.25;;;1.23;;
24090;SDS011;12272;52.426;17.100;2023-08-08T07:54:50;1.70;;;1.20;;
24090;SDS011;12272;52.426;17.100;2023-08-08T07:59:53;1.20;;;0.90;;
24090;SDS011;12272;52.426;17.100;2023-08-08T08:04:55;3.00;;;1.17;;
24090;SDS011;12272;52.426;17.100;2023-08-08T08:09:58;2.00;;;1.35;;
24090;SDS011;12272;52.426;17.100;2023-08-08T08:15:00;1.33;;;0.93;;
24090;SDS011;12272;52.426;17.100;2023-08-08T08:20:04;2.50;;;1.20;;
24090;SDS011;12272;52.426;17.100;2023-08-08T08:25:13;2.08;;;1.70;;
24090;SDS011;12272;52.426;17.100;2023-08-08T08:30:16;1.90;;;1.27;;
24090;SDS011;12272;52.426;17.100;2023-08-08T08:35:20;1.55;;;1.30;;
24090;SDS011;12272;52.426;17.100;2023-08-08T08:40:23;2.92;;;1.05;;
24090;SDS011;12272;52.426;17.100;2023-08-08T08:45:26;1.92;;;1.27;;
24090;SDS011;12272;52.426;17.100;2023-08-08T08:50:31;2.17;;;1.23;;
24090;SDS011;12272;52.426;17.100;2023-08-08T08:55:36;2.95;;;1.05;;
24090;SDS011;12272;52.426;17.100;2023-08-08T09:00:38;1.38;;;1.05;;
24090;SDS011;12272;52.426;17.100;2023-08-08T09:05:42;2.35;;;1.05;;
24090;SDS011;12272;52.426;17.100;2023-08-08T09:10:46;1.00;;;0.77;;
24090;SDS011;12272;52.426;17.100;2023-08-08T09:15:49;1.27;;;1.05;;
24090;SDS011;12272;52.426;17.100;2023-08-08T09:20:52;2.58;;;1.17;;
24090;SDS011;12272;52.426;17.100;2023-08-08T09:25:55;0.93;;;0.60;;
24090;SDS011;12272;52.426;17.100;2023-08-08T09:30:57;1.65;;;1.30;;
24090;SDS011;12272;52.426;17.100;2023-08-08T09:36:00;3.90;;;1.40;;
24090;SDS011;12272;52.426;17.100;2023-08-08T09:41:03;1.40;;;0.82;;
24090;SDS011;12272;52.426;17.100;2023-08-08T09:46:05;2.67;;;1.55;;
24090;SDS011;12272;52.426;17.100;2023-08-08T09:51:10;1.23;;;1.02;;
24090;SDS011;12272;52.426;17.100;2023-08-08T09:56:13;1.75;;;1.17;;
24090;SDS011;12272;52.426;17.100;2023-08-08T10:01:17;2.47;;;1.00;;
24090;SDS011;12272;52.426;17.100;2023-08-08T10:06:22;1.35;;;1.17;;
24090;SDS011;12272;52.426;17.100;2023-08-08T10:11:25;1.60;;;1.10;;
24090;SDS011;12272;52.426;17.100;2023-08-08T10:16:31;1.65;;;0.70;;
24090;SDS011;12272;52.426;17.100;2023-08-08T10:21:36;1.77;;;0.85;;
24090;SDS011;12272;52.426;17.100;2023-08-08T10:26:58;1.35;;;1.10;;
24090;SDS011;12272;52.426;17.100;2023-08-08T10:32:05;2.60;;;1.17;;
24090;SDS011;12272;52.426;17.100;2023-08-08T10:37:11;2.13;;;1.40;;
24090;SDS011;12272;52.426;17.100;2023-08-08T10:42:17;1.35;;;0.77;;
24090;SDS011;12272;52.426;17.100;2023-08-08T10:47:31;1.95;;;0.80;;
24090;SDS011;12272;52.426;17.100;2023-08-08T11:03:09;1.42;;;1.10;;
24090;SDS011;12272;52.426;17.100;2023-08-08T11:08:12;6.97;;;0.82;;
24090;SDS011;12272;52.426;17.100;2023-08-08T11:13:14;1.77;;;1.25;;
24090;SDS011;12272;52.426;17.100;2023-08-08T11:18:17;0.80;;;0.65;;
24090;SDS011;12272;52.426;17.100;2023-08-08T11:23:20;1.48;;;1.00;;
24090;SDS011;12272;52.426;17.100;2023-08-08T11:28:22;2.00;;;1.15;;
24090;SDS011;12272;52.426;17.100;2023-08-08T11:33:25;1.02;;;0.90;;
24090;SDS011;12272;52.426;17.100;2023-08-08T11:38:27;1.10;;;1.00;;
24090;SDS011;12272;52.426;17.100;2023-08-08T11:43:30;1.90;;;1.30;;
24090;SDS011;12272;52.426;17.100;2023-08-08T11:48:33;2.90;;;0.93;;
24090;SDS011;12272;52.426;17.100;2023-08-08T11:53:36;3.58;;;1.23;;
24090;SDS011;12272;52.426;17.100;2023-08-08T11:58:51;2.53;;;1.35;;
24090;SDS011;12272;52.426;17.100;2023-08-08T12:03:54;1.15;;;1.05;;
24090;SDS011;12272;52.426;17.100;2023-08-08T12:08:57;1.05;;;0.70;;
24090;SDS011;12272;52.426;17.100;2023-08-08T12:13:59;1.48;;;1.25;;
24090;SDS011;12272;52.426;17.100;2023-08-08T12:19:03;1.67;;;1.15;;
24090;SDS011;12272;52.426;17.100;2023-08-08T12:24:09;1.85;;;1.05;;
24090;SDS011;12272;52.426;17.100;2023-08-08T12:29:11;1.63;;;0.90;;
24090;SDS011;12272;52.426;17.100;2023-08-08T12:34:14;2.53;;;1.02;;
24090;SDS011;12272;52.426;17.100;2023-08-08T12:39:17;2.22;;;1.10;;
24090;SDS011;12272;52.426;17.100;2023-08-08T12:44:19;3.77;;;0.97;;
24090;SDS011;12272;52.426;17.100;2023-08-08T12:49:22;22.40;;;3.08;;
24090;SDS011;12272;52.426;17.100;2023-08-08T12:54:24;3.95;;;1.30;;
24090;SDS011;12272;52.426;17.100;2023-08-08T12:59:27;7.78;;;1.55;;
24090;SDS011;12272;52.426;17.100;2023-08-08T13:04:30;1.95;;;0.90;;
24090;SDS011;12272;52.426;17.100;2023-08-08T13:09:33;2.28;;;0.90;;
24090;SDS011;12272;52.426;17.100;2023-08-08T13:14:35;2.38;;;1.55;;
24090;SDS011;12272;52.426;17.100;2023-08-08T13:19:38;1.85;;;1.10;;
24090;SDS011;12272;52.426;17.100;2023-08-08T13:24:42;11.88;;;2.50;;
24090;SDS011;12272;52.426;17.100;2023-08-08T13:29:44;2.25;;;1.13;;
24090;SDS011;12272;52.426;17.100;2023-08-08T13:34:47;1.42;;;1.20;;
24090;SDS011;12272;52.426;17.100;2023-08-08T13:39:49;3.53;;;1.23;;
24090;SDS011;12272;52.426;17.100;2023-08-08T13:44:52;2.95;;;0.90;;
24090;SDS011;12272;52.426;17.100;2023-08-08T13:55:37;2.83;;;1.20;;
24090;SDS011;12272;52.426;17.100;2023-08-08T14:00:41;1.48;;;1.10;;
24090;SDS011;12272;52.426;17.100;2023-08-08T14:05:44;1.13;;;0.80;;
24090;SDS011;12272;52.426;17.100;2023-08-08T14:10:46;2.05;;;1.20;;
24090;SDS011;12272;52.426;17.100;2023-08-08T14:15:49;1.30;;;1.20;;
24090;SDS011;12272;52.426;17.100;2023-08-08T14:20:54;1.25;;;0.80;;
24090;SDS011;12272;52.426;17.100;2023-08-08T14:25:56;1.33;;;0.95;;
24090;SDS011;12272;52.426;17.100;2023-08-08T14:30:59;2.33;;;1.30;;
24090;SDS011;12272;52.426;17.100;2023-08-08T14:36:03;3.95;;;1.02;;
24090;SDS011;12272;52.426;17.100;2023-08-08T14:41:07;1.85;;;1.40;;
24090;SDS011;12272;52.426;17.100;2023-08-08T14:46:10;6.57;;;1.30;;
24090;SDS011;12272;52.426;17.100;2023-08-08T14:51:13;1.38;;;1.05;;
24090;SDS011;12272;52.426;17.100;2023-08-08T14:56:18;5.97;;;1.52;;
24090;SDS011;12272;52.426;17.100;2023-08-08T15:01:21;4.05;;;1.83;;
24090;SDS011;12272;52.426;17.100;2023-08-08T15:06:24;1.38;;;1.10;;
24090;SDS011;12272;52.426;17.100;2023-08-08T15:11:26;1.08;;;0.95;;
24090;SDS011;12272;52.426;17.100;2023-08-08T15:16:29;3.13;;;1.17;;
24090;SDS011;12272;52.426;17.100;2023-08-08T15:21:32;1.98;;;1.42;;
24090;SDS011;12272;52.426;17.100;2023-08-08T15:26:34;1.70;;;1.10;;
24090;SDS011;12272;52.426;17.100;2023-08-08T15:31:37;1.70;;;1.48;;
24090;SDS011;12272;52.426;17.100;2023-08-08T15:36:39;1.58;;;0.98;;
24090;SDS011;12272;52.426;17.100;2023-08-08T15:41:42;2.47;;;1.30;;
24090;SDS011;12272;52.426;17.100;2023-08-08T15:46:45;1.52;;;1.20;;
24090;SDS011;12272;52.426;17.100;2023-08-08T15:51:48;1.15;;;0.80;;
24090;SDS011;12272;52.426;17.100;2023-08-08T15:56:51;1.35;;;0.95;;
24090;SDS011;12272;52.426;17.100;2023-08-08T16:01:53;0.85;;;0.55;;
24090;SDS011;12272;52.426;17.100;2023-08-08T16:06:56;1.00;;;0.80;;
24090;SDS011;12272;52.426;17.100;2023-08-08T16:11:58;6.75;;;1.73;;
24090;SDS011;12272;52.426;17.100;2023-08-08T16:17:01;4.72;;;1.30;;
24090;SDS011;12272;52.426;17.100;2023-08-08T16:22:05;1.75;;;1.25;;
24090;SDS011;12272;52.426;17.100;2023-08-08T16:27:08;2.40;;;1.88;;
24090;SDS011;12272;52.426;17.100;2023-08-08T16:32:10;3.28;;;1.70;;
24090;SDS011;12272;52.426;17.100;2023-08-08T16:37:13;2.47;;;2.22;;
24090;SDS011;12272;52.426;17.100;2023-08-08T16:42:16;6.13;;;2.08;;
24090;SDS011;12272;52.426;17.100;2023-08-08T16:47:18;2.28;;;1.70;;
24090;SDS011;12272;52.426;17.100;2023-08-08T16:52:21;1.80;;;1.58;;
24090;SDS011;12272;52.426;17.100;2023-08-08T16:57:24;3.38;;;2.15;;
24090;SDS011;12272;52.426;17.100;2023-08-08T17:02:26;2.97;;;1.35;;
24090;SDS011;12272;52.426;17.100;2023-08-08T17:07:29;3.55;;;1.75;;
24090;SDS011;12272;52.426;17.100;2023-08-08T17:12:32;3.45;;;1.60;;
24090;SDS011;12272;52.426;17.100;2023-08-08T17:17:34;4.60;;;2.10;;
24090;SDS011;12272;52.426;17.100;2023-08-08T17:22:37;2.88;;;1.58;;
24090;SDS011;12272;52.426;17.100;2023-08-08T17:27:40;3.03;;;1.48;;
24090;SDS011;12272;52.426;17.100;2023-08-08T17:32:43;3.40;;;1.83;;
24090;SDS011;12272;52.426;17.100;2023-08-08T17:37:45;4.75;;;1.63;;
24090;SDS011;12272;52.426;17.100;2023-08-08T17:42:49;3.78;;;2.28;;
24090;SDS011;12272;52.426;17.100;2023-08-08T17:47:51;2.15;;;1.90;;
24090;SDS011;12272;52.426;17.100;2023-08-08T17:52:54;2.92;;;2.22;;
24090;SDS011;12272;52.426;17.100;2023-08-08T17:57:57;2.78;;;2.03;;
24090;SDS011;12272;52.426;17.100;2023-08-08T18:02:59;3.65;;;2.22;;
24090;SDS011;12272;52.426;17.100;2023-08-08T18:08:03;6.75;;;2.53;;
24090;SDS011;12272;52.426;17.100;2023-08-08T18:13:06;4.63;;;2.80;;
24090;SDS011;12272;52.426;17.100;2023-08-08T18:18:09;2.85;;;2.28;;
24090;SDS011;12272;52.426;17.100;2023-08-08T18:23:11;4.30;;;2.20;;
24090;SDS011;12272;52.426;17.100;2023-08-08T18:28:14;4.32;;;2.58;;
24090;SDS011;12272;52.426;17.100;2023-08-08T18:33:17;2.80;;;2.30;;
24090;SDS011;12272;52.426;17.100;2023-08-08T18:38:20;3.20;;;2.53;;
24090;SDS011;12272;52.426;17.100;2023-08-08T18:43:22;4.15;;;2.50;;
24090;SDS011;12272;52.426;17.100;2023-08-08T18:48:25;3.47;;;2.27;;
24090;SDS011;12272;52.426;17.100;2023-08-08T18:53:27;2.43;;;2.23;;
24090;SDS011;12272;52.426;17.100;2023-08-08T18:58:30;2.50;;;2.30;;
24090;SDS011;12272;52.426;17.100;2023-08-08T19:03:33;3.58;;;2.15;;
24090;SDS011;12272;52.426;17.100;2023-08-08T19:08:35;2.75;;;1.90;;
24090;SDS011;12272;52.426;17.100;2023-08-08T19:13:38;2.97;;;2.45;;
24090;SDS011;12272;52.426;17.100;2023-08-08T19:18:41;3.77;;;2.70;;
24090;SDS011;12272;52.426;17.100;2023-08-08T19:23:43;4.30;;;2.60;;
24090;SDS011;12272;52.426;17.100;2023-08-08T19:28:46;3.07;;;2.60;;
24090;SDS011;12272;52.426;17.100;2023-08-08T19:33:49;3.70;;;3.40;;
24090;SDS011;12272;52.426;17.100;2023-08-08T19:39:06;6.50;;;3.60;;
24090;SDS011;12272;52.426;17.100;2023-08-08T19:44:09;8.60;;;4.40;;
24090;SDS011;12272;52.426;17.100;2023-08-08T19:49:12;4.63;;;3.57;;
24090;SDS011;12272;52.426;17.100;2023-08-08T19:54:14;5.13;;;3.60;;
24090;SDS011;12272;52.426;17.100;2023-08-08T19:59:17;4.40;;;4.00;;
24090;SDS011;12272;52.426;17.100;2023-08-08T20:04:20;4.03;;;3.63;;
24090;SDS011;12272;52.426;17.100;2023-08-08T20:09:22;5.10;;;3.87;;
24090;SDS011;12272;52.426;17.100;2023-08-08T20:14:25;6.50;;;3.93;;
24090;SDS011;12272;52.426;17.100;2023-08-08T20:19:27;6.20;;;3.13;;
24090;SDS011;12272;52.426;17.100;2023-08-08T20:24:30;3.50;;;2.30;;
24090;SDS011;12272;52.426;17.100;2023-08-08T20:29:33;2.40;;;1.90;;
24090;SDS011;12272;52.426;17.100;2023-08-08T20:34:35;3.22;;;1.52;;
24090;SDS011;12272;52.426;17.100;2023-08-08T20:39:38;2.47;;;1.98;;
24090;SDS011;12272;52.426;17.100;2023-08-08T20:44:41;2.20;;;1.90;;
24090;SDS011;12272;52.426;17.100;2023-08-08T20:49:44;3.35;;;2.20;;
24090;SDS011;12272;52.426;17.100;2023-08-08T20:54:49;2.70;;;1.60;;
24090;SDS011;12272;52.426;17.100;2023-08-08T20:59:52;3.70;;;2.10;;
24090;SDS011;12272;52.426;17.100;2023-08-08T21:04:54;2.25;;;1.40;;
24090;SDS011;12272;52.426;17.100;2023-08-08T21:09:57;2.72;;;2.05;;
24090;SDS011;12272;52.426;17.100;2023-08-08T21:15:00;4.20;;;1.70;;
24090;SDS011;12272;52.426;17.100;2023-08-08T21:20:03;3.38;;;2.33;;
24090;SDS011;12272;52.426;17.100;2023-08-08T21:25:07;2.13;;;1.88;;
24090;SDS011;12272;52.426;17.100;2023-08-08T21:30:10;2.78;;;1.80;;
24090;SDS011;12272;52.426;17.100;2023-08-08T21:35:13;3.40;;;2.50;;
24090;SDS011;12272;52.426;17.100;2023-08-08T21:40:16;6.45;;;2.67;;
24090;SDS011;12272;52.426;17.100;2023-08-08T21:45:18;3.30;;;2.75;;
24090;SDS011;12272;52.426;17.100;2023-08-08T21:50:21;3.88;;;2.70;;
24090;SDS011;12272;52.426;17.100;2023-08-08T21:55:24;3.70;;;2.30;;
24090;SDS011;12272;52.426;17.100;2023-08-08T22:00:26;3.33;;;1.67;;
24090;SDS011;12272;52.426;17.100;2023-08-08T22:05:29;2.58;;;1.95;;
24090;SDS011;12272;52.426;17.100;2023-08-08T22:10:32;2.13;;;1.90;;
24090;SDS011;12272;52.426;17.100;2023-08-08T22:15:36;2.67;;;2.10;;
24090;SDS011;12272;52.426;17.100;2023-08-08T22:20:40;3.78;;;2.35;;
24090;SDS011;12272;52.426;17.100;2023-08-08T22:25:43;3.28;;;2.13;;
24090;SDS011;12272;52.426;17.100;2023-08-08T22:30:46;2.42;;;1.52;;
24090;SDS011;12272;52.426;17.100;2023-08-08T22:35:53;4.15;;;1.95;;
24090;SDS011;12272;52.426;17.100;2023-08-08T22:40:56;2.45;;;1.55;;
24090;SDS011;12272;52.426;17.100;2023-08-08T22:45:58;1.50;;;1.40;;
24090;SDS011;12272;52.426;17.100;2023-08-08T22:51:03;1.67;;;1.38;;
24090;SDS011;12272;52.426;17.100;2023-08-08T22:56:05;1.75;;;1.42;;
24090;SDS011;12272;52.426;17.100;2023-08-08T23:01:08;1.52;;;1.20;;
24090;SDS011;12272;52.426;17.100;2023-08-08T23:06:10;1.40;;;1.15;;
24090;SDS011;12272;52.426;17.100;2023-08-08T23:11:14;2.42;;;1.40;;
24090;SDS011;12272;52.426;17.100;2023-08-08T23:16:17;2.28;;;1.48;;
24090;SDS011;12272;52.426;17.100;2023-08-08T23:21:20;1.88;;;1.40;;
24090;SDS011;12272;52.426;17.100;2023-08-08T23:26:22;1.88;;;1.27;;
24090;SDS011;12272;52.426;17.100;2023-08-08T23:31:25;3.67;;;1.45;;
24090;SDS011;12272;52.426;17.100;2023-08-08T23:36:27;1.90;;;1.25;;
24090;SDS011;12272;52.426;17.100;2023-08-08T23:41:30;3.85;;;1.20;;
24090;SDS011;12272;52.426;17.100;2023-08-08T23:46:32;1.33;;;1.20;;
24090;SDS011;12272;52.426;17.100;2023-08-08T23:51:35;2.47;;;1.35;;
24090;SDS011;12272;52.426;17.100;2023-08-08T23:56:39;9.30;;;4.18;;
